Time;durP1;ratioP1;P1;durP2;ratioP2;P2;SDS_P1;SDS_P2;PMS_P1;PMS_P2;Temp;Humidity;BMP_temperature;BMP_pressure;BME280_temperature;BME280_humidity;BME280_pressure;Samples;Min_cycle;Max_cycle;Signal;HPM_P1;HPM_P2
2021/03/05 00:00:36;;;;;;;55.83;28.70;;;;;;;4.15;77.75;99143.65;1780527;80;21631;-64
2021/03/05 00:03:07;;;;;;;61.77;32.25;;;;;;;4.10;77.82;99146.16;1780589;80;21603;-66
2021/03/05 00:05:38;;;;;;;71.70;35.43;;;;;;;4.04;77.83;99144.38;1759079;80;21587;-65
2021/03/05 00:08:07;;;;;;;62.33;32.03;;;;;;;4.04;77.87;99144.38;1780430;80;21173;-64
2021/03/05 00:10:38;;;;;;;58.68;28.38;;;;;;;4.08;77.82;99145.04;1780283;80;21200;-67
2021/03/05 00:13:06;;;;;;;53.45;29.80;;;;;;;4.03;77.18;99140.89;1780259;80;21042;-63
2021/03/05 00:15:37;;;;;;;61.40;34.13;;;;;;;3.94;77.29;99147.03;1780336;80;21157;-64
2021/03/05 00:18:05;;;;;;;58.85;30.08;;;;;;;3.92;77.16;99145.13;1780512;80;21619;-64
2021/03/05 00:20:37;;;;;;;53.42;31.97;;;;;;;3.88;77.28;99151.10;1780454;80;21603;-65
2021/03/05 00:23:04;;;;;;;60.28;32.03;;;;;;;3.83;77.42;99149.63;1780614;80;22092;-65
2021/03/05 00:25:33;;;;;;;51.20;27.13;;;;;;;3.75;77.82;99157.34;1780338;80;21122;-65
2021/03/05 00:28:01;;;;;;;62.25;32.80;;;;;;;3.72;78.05;99164.95;1780431;80;21165;-64
2021/03/05 00:30:28;;;;;;;84.92;44.63;;;;;;;3.68;78.24;99155.28;1780272;80;21998;-66
2021/03/05 00:32:56;;;;;;;64.05;36.45;;;;;;;3.63;78.56;99148.98;1780490;80;21202;-63
2021/03/05 00:35:24;;;;;;;66.92;35.58;;;;;;;3.62;78.72;99152.16;1780970;80;22162;-65
2021/03/05 00:37:51;;;;;;;76.37;40.03;;;;;;;3.64;78.80;99152.77;1780908;80;22291;-64
2021/03/05 00:40:21;;;;;;;63.00;35.15;;;;;;;3.63;78.83;99156.95;1780403;80;21176;-64
2021/03/05 00:42:49;;;;;;;61.55;33.88;;;;;;;3.61;78.87;99159.01;1780461;80;21695;-64
2021/03/05 00:45:22;;;;;;;65.15;34.50;;;;;;;3.56;78.92;99152.20;1780286;80;21551;-63
2021/03/05 00:47:50;;;;;;;61.15;31.37;;;;;;;3.51;78.98;99152.34;1780519;80;21356;-65
2021/03/05 00:50:20;;;;;;;68.85;34.18;;;;;;;3.46;79.03;99146.86;1780202;80;21264;-64
2021/03/05 00:52:50;;;;;;;66.07;35.55;;;;;;;3.44;79.10;99154.25;1780415;80;21571;-65
2021/03/05 00:55:19;;;;;;;61.35;33.65;;;;;;;3.45;79.20;99149.76;1780313;80;21193;-64
2021/03/05 00:57:48;;;;;;;59.53;30.60;;;;;;;3.45;79.27;99149.76;1780555;80;21570;-65
2021/03/05 01:00:19;;;;;;;62.53;33.58;;;;;;;3.46;79.32;99152.69;1780475;80;21205;-66
2021/03/05 01:02:48;;;;;;;58.50;32.78;;;;;;;3.48;79.41;99154.63;1780404;80;21113;-65
2021/03/05 01:05:16;;;;;;;74.32;42.58;;;;;;;3.48;79.32;99147.98;1780504;80;21046;-66
2021/03/05 01:07:45;;;;;;;62.85;34.73;;;;;;;3.41;79.38;99148.02;1780307;80;21121;-65
2021/03/05 01:10:15;;;;;;;80.57;43.90;;;;;;;3.38;79.51;99143.16;1780219;80;21173;-66
2021/03/05 01:12:44;;;;;;;70.15;39.03;;;;;;;3.35;79.59;99146.26;1780278;80;22390;-67
2021/03/05 01:15:12;;;;;;;64.30;36.68;;;;;;;3.34;79.69;99139.31;1780367;80;21125;-64
2021/03/05 01:17:41;;;;;;;74.17;38.75;;;;;;;3.33;79.69;99148.81;1780388;80;21165;-65
2021/03/05 01:20:16;;;;;;;65.65;37.38;;;;;;;3.30;79.75;99150.59;1780461;80;21141;-65
2021/03/05 01:22:45;;;;;;;74.67;38.83;;;;;;;3.29;79.86;99144.45;1780352;80;21117;-66
2021/03/05 01:25:17;;;;;;;63.85;36.23;;;;;;;3.30;79.88;99151.41;1780432;80;22375;-66
2021/03/05 01:27:45;;;;;;;69.30;36.50;;;;;;;3.32;79.96;99153.31;1780377;80;21035;-65
2021/03/05 01:30:14;;;;;;;53.73;28.95;;;;;;;3.40;79.92;99154.39;1780404;80;21748;-68
2021/03/05 01:32:43;;;;;;;44.83;25.88;;;;;;;3.43;79.64;99155.80;1780441;80;21255;-65
2021/03/05 01:35:19;;;;;;;46.18;25.15;;;;;;;3.45;79.45;99157.73;1780404;80;21111;-68
2021/03/05 01:37:47;;;;;;;45.55;26.15;;;;;;;3.44;79.36;99152.92;1779924;80;21203;-65
2021/03/05 01:40:28;;;;;;;47.50;23.62;;;;;;;3.45;79.19;99155.08;1780397;80;21189;-64
2021/03/05 01:42:56;;;;;;;37.63;21.35;;;;;;;3.42;79.04;99154.97;1780439;80;21133;-66
2021/03/05 01:45:28;;;;;;;35.48;19.15;;;;;;;3.38;78.88;99159.61;1780366;80;21129;-65
2021/03/05 01:48:03;;;;;;;35.83;21.68;;;;;;;3.35;78.76;99165.38;1780470;80;21130;-68
2021/03/05 01:50:35;;;;;;;44.08;23.25;;;;;;;3.30;78.55;99162.55;1780522;80;22170;-64
2021/03/05 01:53:28;;;;;;;51.98;27.32;;;;;;;3.27;78.51;99162.45;1780340;80;21133;-65
2021/03/05 01:55:56;;;;;;;55.43;30.82;;;;;;;3.30;78.37;99163.36;1839609;78;21068;-65
2021/03/05 01:58:24;;;;;;;41.65;23.10;;;;;;;3.33;78.25;99162.92;1839439;78;21517;-65
2021/03/05 02:01:02;;;;;;;39.92;22.20;;;;;;;3.36;78.08;99159.00;1839492;78;21127;-66
2021/03/05 02:03:32;;;;;;;52.58;26.60;;;;;;;3.35;77.67;99160.88;1831889;78;21331;-66
2021/03/05 02:06:00;;;;;;;39.65;23.77;;;;;;;3.31;77.31;99166.30;1839304;78;21440;-65
2021/03/05 02:08:28;;;;;;;43.05;22.48;;;;;;;3.30;77.13;99167.86;1839449;78;21570;-65
2021/03/05 02:10:56;;;;;;;34.63;17.80;;;;;;;3.29;77.00;99172.87;1839382;78;21088;-67
2021/03/05 02:13:24;;;;;;;38.10;20.55;;;;;;;3.25;76.73;99168.51;1839422;78;21084;-66
2021/03/05 02:15:52;;;;;;;28.40;15.08;;;;;;;3.22;76.51;99172.91;1839580;78;21372;-64
2021/03/05 02:18:51;;;;;;;30.02;15.65;;;;;;;3.18;76.11;99184.17;1839306;78;21112;-66
2021/03/05 02:21:49;;;;;;;30.25;15.10;;;;;;;3.12;75.86;99180.53;1839176;78;21621;-64
2021/03/05 02:24:50;;;;;;;28.75;14.90;;;;;;;3.09;75.95;99184.95;1839422;78;21518;-66
2021/03/05 02:28:00;;;;;;;27.30;14.68;;;;;;;3.06;75.75;99188.87;1839481;78;21128;-64
2021/03/05 02:30:54;;;;;;;29.72;16.37;;;;;;;3.03;75.41;99187.13;1839340;78;21621;-65
2021/03/05 02:33:34;;;;;;;25.02;12.95;;;;;;;2.99;75.29;99186.75;1853540;77;21146;-65
2021/03/05 02:36:02;;;;;;;28.77;13.72;;;;;;;2.95;75.21;99189.53;1794211;80;21071;-65
2021/03/05 02:38:30;;;;;;;22.50;11.45;;;;;;;2.93;75.18;99192.08;1795145;80;22067;-66
2021/03/05 02:40:57;;;;;;;25.00;14.30;;;;;;;2.93;75.17;99196.07;1795312;80;22288;-64
2021/03/05 02:43:25;;;;;;;28.17;13.20;;;;;;;2.93;74.92;99205.36;1794890;80;21438;-64
2021/03/05 02:46:02;;;;;;;18.85;11.75;;;;;;;2.91;74.92;99206.92;1795117;80;21583;-66
2021/03/05 02:48:40;;;;;;;27.13;13.65;;;;;;;2.91;74.81;99201.61;1795078;80;21131;-66
2021/03/05 02:51:09;;;;;;;25.95;12.88;;;;;;;2.90;74.71;99199.98;1795078;80;21213;-66
2021/03/05 02:53:38;;;;;;;21.42;11.18;;;;;;;2.91;74.63;99216.73;1795264;79;21634;-65
2021/03/05 02:56:11;;;;;;;22.58;12.13;;;;;;;2.93;74.57;99214.66;1854141;77;21017;-66
2021/03/05 02:58:41;;;;;;;20.60;11.05;;;;;;;2.96;74.46;99211.59;1854353;77;25000;-66
2021/03/05 03:01:09;;;;;;;22.15;11.05;;;;;;;3.00;74.24;99213.62;1854307;77;21106;-66
2021/03/05 03:03:38;;;;;;;20.72;11.08;;;;;;;3.02;74.08;99224.04;1854162;77;21182;-65
2021/03/05 03:06:10;;;;;;;17.32;11.33;;;;;;;3.03;73.92;99218.49;1854254;77;21142;-64
2021/03/05 03:08:39;;;;;;;22.62;12.82;;;;;;;3.01;73.80;99228.53;1854007;77;22122;-66
2021/03/05 03:11:06;;;;;;;23.55;13.62;;;;;;;2.97;73.72;99232.62;1854171;77;21607;-63
2021/03/05 03:13:36;;;;;;;25.82;13.80;;;;;;;2.96;73.89;99235.00;1854140;77;21000;-65
2021/03/05 03:16:05;;;;;;;22.22;12.28;;;;;;;2.96;73.96;99241.63;1852887;77;26895;-65
2021/03/05 03:18:35;;;;;;;25.10;13.90;;;;;;;2.97;73.95;99237.14;1854387;77;20991;-65
2021/03/05 03:21:03;;;;;;;18.87;11.40;;;;;;;2.98;73.95;99240.08;1854441;77;21342;-66
2021/03/05 03:23:32;;;;;;;22.30;12.00;;;;;;;2.99;73.99;99245.19;1854844;77;21153;-64
2021/03/05 03:26:00;;;;;;;21.80;11.10;;;;;;;3.00;73.96;99246.82;1854451;77;21583;-66
2021/03/05 03:28:28;;;;;;;22.87;12.30;;;;;;;3.00;74.03;99242.84;1854322;77;21172;-65
2021/03/05 03:30:56;;;;;;;20.20;11.55;;;;;;;3.01;74.08;99251.63;1854398;77;21147;-65
2021/03/05 03:33:24;;;;;;;25.45;12.80;;;;;;;3.01;74.13;99248.45;1854306;77;21578;-65
2021/03/05 03:35:51;;;;;;;29.32;13.93;;;;;;;3.00;74.27;99251.31;1854360;77;21105;-64
2021/03/05 03:38:19;;;;;;;24.85;14.53;;;;;;;2.98;74.36;99252.84;1854419;77;21662;-64
2021/03/05 03:40:47;;;;;;;32.67;15.40;;;;;;;2.97;74.49;99256.52;1854192;77;21117;-64
2021/03/05 03:43:15;;;;;;;28.47;16.30;;;;;;;2.99;74.55;99264.28;1854380;77;21137;-63
2021/03/05 03:45:43;;;;;;;35.50;17.75;;;;;;;2.98;74.62;99258.16;1854453;77;21403;-63
2021/03/05 03:48:11;;;;;;;34.00;16.02;;;;;;;3.01;74.68;99262.25;1831438;77;21567;-66
2021/03/05 03:50:46;;;;;;;29.67;15.78;;;;;;;2.97;75.63;99267.14;1854341;77;21097;-66
2021/03/05 03:53:16;;;;;;;24.35;14.30;;;;;;;2.91;77.54;99268.52;1854435;77;21145;-64
2021/03/05 03:55:52;;;;;;;34.58;16.52;;;;;;;2.78;79.59;99270.69;1864408;76;21109;-65
2021/03/05 03:58:21;;;;;;;33.50;19.62;;;;;;;2.73;80.17;99272.38;1867585;76;21218;-65
2021/03/05 04:00:51;;;;;;;22.45;15.03;;;;;;;2.73;80.80;99269.72;1868012;76;21144;-66
2021/03/05 04:03:19;;;;;;;26.37;14.47;;;;;;;2.71;81.60;99273.08;1868085;76;21032;-65
2021/03/05 04:05:48;;;;;;;29.02;16.67;;;;;;;2.70;81.98;99274.92;1867741;76;21053;-65
2021/03/05 04:08:18;;;;;;;29.82;14.15;;;;;;;2.74;82.26;99267.34;1865582;76;21144;-64
2021/03/05 04:10:46;;;;;;;32.50;16.30;;;;;;;2.78;82.53;99269.37;1867905;76;21408;-64
2021/03/05 04:13:14;;;;;;;33.45;14.70;;;;;;;2.78;82.64;99272.02;1867915;76;21105;-67
2021/03/05 04:15:42;;;;;;;35.03;15.60;;;;;;;2.74;82.81;99268.16;1841564;76;22166;-66
2021/03/05 04:18:11;;;;;;;35.58;15.72;;;;;;;2.69;83.08;99271.13;1867834;76;21196;-65
2021/03/05 04:20:39;;;;;;;30.35;15.75;;;;;;;2.67;83.41;99267.89;1867814;76;21133;-66
2021/03/05 04:23:07;;;;;;;39.03;19.37;;;;;;;2.64;83.74;99265.12;1867903;76;21355;-66
2021/03/05 04:25:35;;;;;;;40.17;18.92;;;;;;;2.63;84.02;99274.95;1840349;76;21570;-67
2021/03/05 04:28:04;;;;;;;35.63;16.85;;;;;;;2.61;84.34;99278.32;1867813;76;21521;-65
2021/03/05 04:30:31;;;;;;;28.62;14.23;;;;;;;2.66;84.62;99282.19;1867855;76;21617;-65
2021/03/05 04:32:59;;;;;;;25.77;12.85;;;;;;;2.64;84.66;99280.55;1867532;76;21539;-65
2021/03/05 04:35:28;;;;;;;25.43;13.80;;;;;;;2.62;84.72;99280.47;1867714;76;21435;-65
2021/03/05 04:37:56;;;;;;;36.40;18.77;;;;;;;2.58;84.83;99285.38;1867643;76;21017;-66
2021/03/05 04:40:25;;;;;;;39.48;18.20;;;;;;;2.55;85.08;99292.41;1867813;76;21575;-64
2021/03/05 04:42:53;;;;;;;37.03;17.67;;;;;;;2.54;85.18;99292.11;1867755;76;21104;-65
2021/03/05 04:45:21;;;;;;;36.73;18.73;;;;;;;2.54;85.39;99297.41;1867827;76;20998;-66
2021/03/05 04:47:49;;;;;;;34.80;16.65;;;;;;;2.58;85.58;99294.67;1867914;76;21200;-64
2021/03/05 04:50:17;;;;;;;30.12;15.65;;;;;;;2.61;85.58;99292.92;1867861;76;21117;-67
2021/03/05 04:52:44;;;;;;;36.75;20.43;;;;;;;2.62;85.49;99293.73;1867829;76;21566;-64
2021/03/05 04:55:14;;;;;;;40.73;21.23;;;;;;;2.61;85.40;99294.76;1862488;76;21594;-65
2021/03/05 04:57:42;;;;;;;25.95;17.40;;;;;;;2.60;85.36;99300.58;1854354;77;21567;-65
2021/03/05 05:00:11;;;;;;;27.55;15.38;;;;;;;2.60;85.29;99298.42;1854193;77;23361;-65
2021/03/05 05:02:39;;;;;;;35.17;19.62;;;;;;;2.55;85.36;99296.91;1854295;77;21133;-65
2021/03/05 05:05:08;;;;;;;33.67;15.25;;;;;;;2.52;85.34;99304.79;1854185;77;21118;-65
2021/03/05 05:07:36;;;;;;;27.70;14.28;;;;;;;2.55;85.53;99299.05;1854315;77;21579;-66
2021/03/05 05:10:05;;;;;;;29.90;16.40;;;;;;;2.60;85.47;99299.24;1854337;77;21531;-65
2021/03/05 05:12:32;;;;;;;33.95;18.48;;;;;;;2.67;85.36;99307.20;1854201;77;21353;-67
2021/03/05 05:15:00;;;;;;;34.20;18.27;;;;;;;2.72;85.20;99309.23;1854053;77;21905;-63
2021/03/05 05:17:27;;;;;;;26.17;15.30;;;;;;;2.80;85.14;99316.45;1854183;77;21532;-63
2021/03/05 05:19:55;;;;;;;32.67;18.42;;;;;;;2.83;84.82;99320.01;1854116;77;21177;-64
2021/03/05 05:22:23;;;;;;;31.55;17.00;;;;;;;2.80;84.74;99317.78;1854187;77;21566;-66
2021/03/05 05:24:52;;;;;;;37.53;20.65;;;;;;;2.79;84.60;99310.84;1854230;77;22261;-66
2021/03/05 05:27:20;;;;;;;40.63;24.72;;;;;;;2.77;84.47;99309.42;1854106;77;21105;-66
2021/03/05 05:29:49;;;;;;;43.63;22.02;;;;;;;2.79;84.44;99311.34;1855030;77;22124;-63
2021/03/05 05:32:17;;;;;;;36.80;21.97;;;;;;;2.83;84.29;99316.02;1855890;77;21090;-65
2021/03/05 05:34:45;;;;;;;38.13;19.98;;;;;;;2.86;84.20;99322.78;1854944;77;21558;-64
2021/03/05 05:37:13;;;;;;;35.00;19.87;;;;;;;2.83;83.83;99324.53;1854487;77;21387;-64
2021/03/05 05:39:40;;;;;;;31.55;17.62;;;;;;;2.86;83.97;99328.09;1854388;77;21618;-64
2021/03/05 05:42:08;;;;;;;33.18;16.85;;;;;;;2.89;83.75;99328.48;1854327;77;21152;-66
2021/03/05 05:44:36;;;;;;;45.83;25.85;;;;;;;2.89;83.36;99327.66;1854186;77;21591;-64
2021/03/05 05:47:04;;;;;;;38.28;21.30;;;;;;;2.78;83.23;99327.00;1854142;77;21157;-65
2021/03/05 05:49:32;;;;;;;51.15;22.98;;;;;;;2.76;83.42;99333.83;1854186;77;21595;-64
2021/03/05 05:52:00;;;;;;;45.33;25.72;;;;;;;2.75;83.45;99334.85;1854038;77;21149;-64
2021/03/05 05:54:28;;;;;;;32.83;20.32;;;;;;;2.77;83.48;99334.65;1854218;77;21984;-64
2021/03/05 05:56:56;;;;;;;39.83;20.30;;;;;;;2.77;83.33;99338.63;1822972;76;21547;-65
2021/03/05 05:59:25;;;;;;;37.13;17.85;;;;;;;2.72;83.28;99347.22;1822290;78;21113;-64
2021/03/05 06:01:53;;;;;;;32.38;18.20;;;;;;;2.71;83.46;99346.91;1822464;78;21326;-66
2021/03/05 06:04:22;;;;;;;23.52;11.63;;;;;;;2.78;83.40;99341.59;1822489;78;21112;-65
2021/03/05 06:06:53;;;;;;;32.03;18.20;;;;;;;2.82;83.19;99346.80;1822459;78;21109;-63
2021/03/05 06:09:20;;;;;;;32.88;17.67;;;;;;;2.83;82.85;99350.55;1822612;78;21578;-68
2021/03/05 06:11:48;;;;;;;23.27;13.08;;;;;;;2.81;82.37;99353.94;1822667;78;21168;-66
2021/03/05 06:14:17;;;;;;;29.70;16.75;;;;;;;2.82;82.32;99353.43;1822797;78;21194;-64
2021/03/05 06:16:55;;;;;;;34.85;19.27;;;;;;;2.87;82.40;99361.08;1822477;78;20992;-64
2021/03/05 06:19:28;;;;;;;27.93;14.35;;;;;;;2.85;82.04;99359.14;1822703;78;21096;-64
2021/03/05 06:21:57;;;;;;;25.75;13.72;;;;;;;2.79;81.39;99359.95;1822341;78;21075;-65
2021/03/05 06:24:27;;;;;;;24.52;13.58;;;;;;;2.73;81.20;99367.45;1822472;78;21144;-64
2021/03/05 06:27:00;;;;;;;29.25;14.13;;;;;;;2.68;81.18;99365.10;1822565;78;22117;-63
2021/03/05 06:29:47;;;;;;;31.25;14.58;;;;;;;2.62;81.39;99362.77;1822545;78;21605;-64
2021/03/05 06:32:16;;;;;;;22.60;13.10;;;;;;;2.67;81.67;99361.63;1822417;78;21109;-66
2021/03/05 06:34:54;;;;;;;23.30;13.28;;;;;;;2.68;81.35;99367.25;1822419;78;21112;-65
2021/03/05 06:37:24;;;;;;;24.07;11.90;;;;;;;2.70;81.34;99371.00;1822455;78;21088;-63
2021/03/05 06:40:05;;;;;;;26.05;15.53;;;;;;;2.77;81.27;99373.97;1822508;78;21364;-63
2021/03/05 06:42:52;;;;;;;21.40;13.93;;;;;;;2.77;81.16;99373.16;1822343;78;20994;-63
2021/03/05 06:45:25;;;;;;;28.35;16.37;;;;;;;2.81;80.97;99375.19;1822477;78;21202;-61
2021/03/05 06:48:07;;;;;;;25.37;15.00;;;;;;;2.80;80.83;99382.02;1822578;78;21140;-64
2021/03/05 06:50:38;;;;;;;32.85;15.32;;;;;;;2.82;80.58;99374.67;1822609;78;21550;-63
2021/03/05 06:53:24;;;;;;;26.82;14.55;;;;;;;2.81;79.87;99369.88;1822439;78;21550;-65
2021/03/05 06:55:52;;;;;;;18.23;10.20;;;;;;;2.85;80.08;99367.61;1822312;77;21014;-63
2021/03/05 06:58:21;;;;;;;20.20;10.72;;;;;;;2.94;79.73;99371.67;1822543;78;21101;-64
2021/03/05 07:00:48;;;;;;;23.70;12.20;;;;;;;2.95;79.29;99374.13;1822572;78;21131;-61
2021/03/05 07:03:23;;;;;;;23.73;12.88;;;;;;;2.95;79.10;99374.64;1749003;78;21133;-62
2021/03/05 07:05:53;;;;;;;27.62;14.23;;;;;;;2.96;78.83;99382.92;1822406;78;21168;-65
2021/03/05 07:08:42;;;;;;;23.70;11.22;;;;;;;2.93;78.56;99378.00;1822427;78;21559;-63
2021/03/05 07:11:34;;;;;;;27.65;16.23;;;;;;;2.88;78.65;99385.77;1822400;78;21153;-63
2021/03/05 07:14:07;;;;;;;23.25;12.95;;;;;;;2.86;78.45;99378.55;1822359;78;21029;-64
2021/03/05 07:16:43;;;;;;;24.27;13.40;;;;;;;2.88;78.33;99393.74;1799822;78;21134;-63
2021/03/05 07:19:13;;;;;;;28.62;14.80;;;;;;;2.91;78.12;99385.38;1822505;78;21188;-64
2021/03/05 07:21:44;;;;;;;29.67;17.27;;;;;;;2.92;77.75;99385.18;1822373;78;21569;-67
2021/03/05 07:24:14;;;;;;;50.83;28.95;;;;;;;2.94;77.75;99379.13;1822505;78;21108;-62
2021/03/05 07:26:44;;;;;;;29.23;16.87;;;;;;;2.98;77.70;99388.82;1822402;78;21101;-63
2021/03/05 07:29:14;;;;;;;34.53;18.42;;;;;;;2.98;77.53;99383.51;1822482;78;21109;-64
2021/03/05 07:31:43;;;;;;;52.70;27.95;;;;;;;3.01;77.34;99383.11;1822408;78;21545;-64
2021/03/05 07:34:17;;;;;;;34.15;20.15;;;;;;;3.01;77.20;99388.42;1822425;78;21136;-63
2021/03/05 07:36:50;;;;;;;18.98;11.73;;;;;;;3.05;77.09;99389.63;1823654;78;20994;-65
2021/03/05 07:39:25;;;;;;;19.92;12.73;;;;;;;3.02;76.53;99393.50;1823036;78;21117;-64
2021/03/05 07:41:55;;;;;;;21.27;10.98;;;;;;;2.96;76.59;99393.54;1822431;78;21100;-65
2021/03/05 07:44:24;;;;;;;68.07;34.43;;;;;;;2.98;76.61;99388.31;1822418;78;21457;-66
2021/03/05 07:46:53;;;;;;;38.02;19.70;;;;;;;2.95;76.66;99384.75;1822324;78;21116;-64
2021/03/05 07:49:30;;;;;;;30.77;17.37;;;;;;;3.00;76.74;99394.75;1822412;78;21194;-63
2021/03/05 07:51:59;;;;;;;28.17;15.45;;;;;;;3.06;76.54;99402.72;1822357;78;21129;-64
2021/03/05 07:54:47;;;;;;;22.30;12.95;;;;;;;3.11;75.81;99397.28;1822511;78;21485;-62
2021/03/05 07:57:23;;;;;;;26.73;14.53;;;;;;;3.12;75.98;99399.71;1861634;76;21360;-63
2021/03/05 07:59:52;;;;;;;21.65;11.90;;;;;;;3.20;75.82;99400.02;1867688;76;20982;-65
2021/03/05 08:02:22;;;;;;;25.10;14.07;;;;;;;3.24;75.69;99399.39;1867698;76;20971;-64
2021/03/05 08:04:56;;;;;;;20.90;11.80;;;;;;;3.35;75.80;99401.41;1867833;76;21172;-62
2021/03/05 08:07:26;;;;;;;28.45;14.38;;;;;;;3.41;75.25;99403.70;1867965;76;21080;-64
2021/03/05 08:12:42;;;;;;;22.87;11.40;;;;;;;3.58;74.75;99393.42;1846963;76;22651;-65
2021/03/05 08:15:13;;;;;;;17.80;8.93;;;;;;;3.61;74.15;99396.47;1817107;78;21149;-63
2021/03/05 08:17:44;;;;;;;12.60;8.13;;;;;;;3.61;72.85;99391.14;1817405;79;21363;-64
2021/03/05 08:20:24;;;;;;;21.80;11.60;;;;;;;3.61;72.51;99391.14;1799828;79;21042;-63
2021/03/05 08:23:04;;;;;;;17.27;10.72;;;;;;;3.61;72.25;99386.34;1812360;79;21508;-64
2021/03/05 08:25:38;;;;;;;19.87;9.43;;;;;;;3.64;72.20;99388.08;1806714;78;21042;-64
2021/03/05 08:28:39;;;;;;;17.35;8.45;;;;;;;3.69;71.94;99391.44;1784732;80;21060;-62
2021/03/05 08:31:35;;;;;;;19.55;9.23;;;;;;;3.72;71.20;99391.00;1784622;79;21372;-66
2021/03/05 08:34:26;;;;;;;16.17;10.08;;;;;;;3.77;71.07;99401.30;1784745;80;21614;-66
2021/03/05 08:36:53;;;;;;;16.35;8.33;;;;;;;3.90;70.83;99403.06;1784784;79;21149;-65
2021/03/05 08:39:23;;;;;;;17.02;9.70;;;;;;;3.99;70.38;99406.28;1753907;81;21563;-62
2021/03/05 08:42:33;;;;;;;18.12;10.20;;;;;;;4.08;70.15;99403.15;1753681;81;22250;-66
2021/03/05 08:45:15;;;;;;;28.02;15.03;;;;;;;4.13;69.58;99405.98;1753903;81;21376;-60
2021/03/05 08:47:49;;;;;;;16.67;10.35;;;;;;;4.16;69.26;99401.58;1753579;81;21203;-63
2021/03/05 08:50:21;;;;;;;21.27;11.05;;;;;;;4.16;69.42;99396.25;1753214;81;21137;-63
2021/03/05 08:52:50;;;;;;;14.00;7.58;;;;;;;4.15;69.52;99402.60;1753719;81;21185;-63
2021/03/05 08:55:19;;;;;;;15.93;9.20;;;;;;;4.18;69.09;99398.17;1753847;81;21610;-63
2021/03/05 08:57:49;;;;;;;18.37;11.48;;;;;;;4.24;68.34;99396.50;1753460;81;21202;-64
2021/03/05 09:00:19;;;;;;;18.40;10.72;;;;;;;4.25;68.14;99406.12;1754854;81;21089;-63
2021/03/05 09:02:49;;;;;;;15.75;8.50;;;;;;;4.25;67.64;99413.59;1754601;81;21613;-69
2021/03/05 09:05:34;;;;;;;17.65;9.70;;;;;;;4.18;67.09;99415.47;1753526;81;21180;-63
2021/03/05 09:08:03;;;;;;;16.45;8.10;;;;;;;4.16;66.77;99414.06;1753647;81;21033;-65
2021/03/05 09:10:43;;;;;;;15.58;7.37;;;;;;;4.16;65.25;99422.88;1753396;81;21369;-67
2021/03/05 09:13:16;;;;;;;12.85;7.87;;;;;;;4.09;65.10;99415.42;1753560;81;21145;-65
2021/03/05 09:15:50;;;;;;;16.48;8.70;;;;;;;4.10;65.11;99423.72;1783310;80;21113;-62
2021/03/05 09:18:28;;;;;;;15.53;7.92;;;;;;;4.14;65.47;99420.92;1784515;80;21014;-61
2021/03/05 09:21:00;;;;;;;9.93;5.97;;;;;;;4.16;64.33;99416.22;1784072;80;21234;-62
2021/03/05 09:23:33;;;;;;;10.40;7.65;;;;;;;4.22;65.04;99416.66;1784434;80;21416;-62
2021/03/05 09:28:49;;;;;;;21.10;14.20;;;;;;;4.26;65.83;99416.56;1827531;76;27773;-62
2021/03/05 09:31:23;;;;;;;20.43;13.93;;;;;;;4.29;65.29;99424.10;1787272;80;20962;-63
2021/03/05 09:33:52;;;;;;;24.85;12.33;;;;;;;4.29;65.29;99424.10;1787036;80;21470;-59
2021/03/05 09:36:21;;;;;;;13.45;8.05;;;;;;;4.35;65.70;99430.41;1787122;80;21649;-60
2021/03/05 09:38:54;;;;;;;14.47;8.73;;;;;;;4.37;63.96;99420.34;1787063;80;20998;-59
2021/03/05 09:41:31;;;;;;;13.62;8.28;;;;;;;4.38;64.11;99425.98;1787143;80;26693;-62
2021/03/05 09:44:06;;;;;;;19.77;10.35;;;;;;;4.42;64.29;99435.16;1757625;80;21061;-60
2021/03/05 09:46:41;;;;;;;17.57;9.60;;;;;;;4.42;64.79;99435.16;1786957;80;21351;-62
2021/03/05 09:49:26;;;;;;;11.73;8.15;;;;;;;4.42;64.46;99439.66;1786963;80;20977;-63
2021/03/05 09:52:01;;;;;;;10.30;7.10;;;;;;;4.48;63.73;99438.30;1846899;76;22077;-62
2021/03/05 09:54:40;;;;;;;10.88;7.40;;;;;;;4.45;62.74;99440.07;1816946;79;21037;-61
2021/03/05 09:57:09;;;;;;;10.58;6.50;;;;;;;4.46;62.76;99447.00;1814770;79;21403;-61
2021/03/05 09:59:49;;;;;;;9.20;5.47;;;;;;;4.47;62.10;99457.96;1785811;79;21051;-66
2021/03/05 10:02:21;;;;;;;14.95;7.12;;;;;;;4.43;61.33;99464.75;1816906;79;21666;-65
2021/03/05 10:04:51;;;;;;;9.63;6.33;;;;;;;4.37;61.66;99463.77;1817153;78;20990;-64
2021/03/05 10:07:19;;;;;;;18.77;9.68;;;;;;;4.35;62.25;99459.70;1817069;79;21619;-62
2021/03/05 10:09:47;;;;;;;15.80;7.80;;;;;;;4.39;62.46;99459.56;1816440;79;21356;-63
2021/03/05 10:12:15;;;;;;;13.85;7.62;;;;;;;4.42;62.48;99469.77;1817102;79;21169;-62
2021/03/05 10:14:42;;;;;;;15.75;7.22;;;;;;;4.42;62.48;99469.77;1817090;79;21583;-63
2021/03/05 10:17:15;;;;;;;11.05;6.65;;;;;;;4.39;63.27;99468.88;1816945;79;21161;-62
2021/03/05 10:19:45;;;;;;;10.28;7.37;;;;;;;4.33;63.28;99469.22;1816689;79;21113;-62
2021/03/05 10:22:13;;;;;;;11.65;7.22;;;;;;;4.35;63.53;99465.84;1817172;79;23485;-63
2021/03/05 10:24:41;;;;;;;14.53;7.37;;;;;;;4.55;63.36;99469.70;1817299;79;21122;-63
2021/03/05 10:27:21;;;;;;;18.12;11.78;;;;;;;4.55;63.36;99469.70;1817065;79;21531;-62
2021/03/05 10:29:56;;;;;;;16.12;8.28;;;;;;;4.66;63.22;99464.16;1791160;79;21756;-61
2021/03/05 10:32:26;;;;;;;10.13;6.22;;;;;;;4.78;62.88;99469.92;1784921;80;21153;-63
2021/03/05 10:34:57;;;;;;;12.75;6.55;;;;;;;4.87;62.20;99469.64;1784987;80;22253;-65
2021/03/05 10:37:25;;;;;;;11.78;7.17;;;;;;;4.81;60.90;99469.98;1784995;80;21567;-63
2021/03/05 10:39:54;;;;;;;13.50;7.28;;;;;;;4.81;60.90;99469.98;1784869;80;21563;-66
2021/03/05 10:42:24;;;;;;;13.50;7.80;;;;;;;4.76;61.26;99470.64;1784951;80;21211;-64
2021/03/05 10:44:52;;;;;;;9.48;6.30;;;;;;;4.73;61.57;99465.77;1784822;80;21218;-63
2021/03/05 10:47:21;;;;;;;11.80;7.58;;;;;;;4.74;61.27;99467.41;1784778;79;21578;-63
2021/03/05 10:49:49;;;;;;;10.53;6.65;;;;;;;4.76;61.86;99476.48;1784733;80;21205;-63
2021/03/05 10:52:23;;;;;;;13.62;6.67;;;;;;;4.73;62.82;99476.93;1784848;80;21117;-63
2021/03/05 10:54:53;;;;;;;11.88;6.22;;;;;;;4.68;63.71;99470.11;1784754;80;21046;-62
2021/03/05 10:57:22;;;;;;;15.10;7.75;;;;;;;4.68;63.71;99470.11;1784860;80;21555;-63
2021/03/05 10:59:50;;;;;;;12.80;7.92;;;;;;;4.65;63.54;99466.55;1784848;80;21371;-61
2021/03/05 11:02:19;;;;;;;7.83;5.05;;;;;;;4.64;63.71;99475.05;1784437;80;21555;-62
2021/03/05 11:04:47;;;;;;;9.48;5.65;;;;;;;4.60;62.30;99475.20;1784466;80;21172;-61
2021/03/05 11:07:14;;;;;;;9.93;7.58;;;;;;;4.54;61.77;99481.89;1784385;80;21097;-62
2021/03/05 11:09:44;;;;;;;13.28;9.48;;;;;;;4.34;63.85;99485.50;1784436;80;21562;-64
2021/03/05 11:12:13;;;;;;;9.65;5.90;;;;;;;4.24;64.45;99483.00;1784249;80;21258;-61
2021/03/05 11:14:41;;;;;;;8.53;6.03;;;;;;;4.24;64.45;99483.00;1784307;80;20995;-64
2021/03/05 11:17:09;;;;;;;7.62;5.47;;;;;;;4.14;65.54;99485.30;1784209;80;20999;-63
2021/03/05 11:19:37;;;;;;;8.88;5.62;;;;;;;4.06;66.46;99490.37;1784249;80;21042;-65
2021/03/05 11:22:05;;;;;;;10.20;5.75;;;;;;;4.00;67.52;99494.39;1784185;80;21130;-65
2021/03/05 11:24:34;;;;;;;11.63;5.22;;;;;;;3.92;68.38;99486.15;1784432;80;22316;-64
2021/03/05 11:27:04;;;;;;;9.43;5.75;;;;;;;3.88;69.00;99488.94;1784320;80;21130;-63
2021/03/05 11:29:32;;;;;;;9.00;5.28;;;;;;;3.89;69.15;99498.02;1784420;79;21160;-63
2021/03/05 11:32:00;;;;;;;10.82;6.50;;;;;;;3.92;69.02;99489.63;1784220;80;21005;-64
2021/03/05 11:34:31;;;;;;;10.10;6.17;;;;;;;3.99;68.61;99494.08;1783902;80;21145;-64
2021/03/05 11:37:00;;;;;;;10.70;6.65;;;;;;;4.04;68.30;99491.09;1784285;80;21368;-64
2021/03/05 11:39:27;;;;;;;8.95;6.33;;;;;;;4.07;66.58;99490.69;1784407;80;21595;-63
2021/03/05 11:41:56;;;;;;;11.33;5.47;;;;;;;4.09;66.55;99490.45;1784294;80;21189;-67
2021/03/05 11:44:24;;;;;;;13.68;6.40;;;;;;;4.11;66.59;99490.55;1784426;80;21145;-65
2021/03/05 11:46:52;;;;;;;11.93;6.72;;;;;;;4.11;66.54;99489.73;1784426;80;21756;-61
2021/03/05 11:49:19;;;;;;;8.50;5.72;;;;;;;4.12;66.91;99494.86;1784398;80;23594;-65
2021/03/05 11:51:47;;;;;;;8.28;5.33;;;;;;;4.16;67.09;99498.72;1791988;79;21164;-65